Time;durP1;ratioP1;P1;durP2;ratioP2;P2;SDS_P1;SDS_P2;PMS_P1;PMS_P2;Temp;Humidity;BMP_temperature;BMP_pressure;BME280_temperature;BME280_humidity;BME280_pressure;Samples;Min_cycle;Max_cycle;Signal;HPM_P1;HPM_P2
2023/01/21 00:00:33;;;;;;;8.50;4.83;;;-8.50;99.90;;;;;;4160819;28;20192;-63
2023/01/21 00:02:33;;;;;;;8.10;5.00;;;-8.50;99.90;;;;;;4179240;28;20187;-63
2023/01/21 00:04:36;;;;;;;8.40;4.27;;;-8.50;99.90;;;;;;4179238;28;20219;-63
2023/01/21 00:06:37;;;;;;;9.43;5.28;;;-8.50;99.90;;;;;;4161492;28;20270;-63
2023/01/21 00:08:38;;;;;;;10.60;5.20;;;-8.30;99.90;;;;;;4161733;28;20258;-63
2023/01/21 00:10:39;;;;;;;8.97;5.17;;;-8.30;99.90;;;;;;4178830;28;20181;-63
2023/01/21 00:12:39;;;;;;;13.20;5.90;;;-8.40;99.80;;;;;;4178937;28;20179;-63
2023/01/21 00:14:40;;;;;;;7.20;4.50;;;-8.40;99.80;;;;;;4179090;28;20191;-63
2023/01/21 00:16:41;;;;;;;6.77;4.17;;;-8.40;99.80;;;;;;4178997;28;20184;-63
2023/01/21 00:18:41;;;;;;;9.53;4.70;;;-8.50;99.90;;;;;;4161663;28;20712;-63
2023/01/21 00:20:44;;;;;;;10.47;4.27;;;-8.50;99.90;;;;;;4178262;28;20179;-63
2023/01/21 00:22:45;;;;;;;6.88;3.88;;;-8.50;99.90;;;;;;4161395;28;20199;-63
2023/01/21 00:24:46;;;;;;;6.63;3.90;;;-8.50;99.90;;;;;;4173539;28;20675;-63
2023/01/21 00:26:46;;;;;;;7.23;4.10;;;-8.50;99.90;;;;;;4154032;28;20551;-63
2023/01/21 00:28:47;;;;;;;7.23;4.23;;;-8.70;99.90;;;;;;4162513;28;20187;-63
2023/01/21 00:30:47;;;;;;;7.33;4.00;;;-8.50;99.90;;;;;;4161911;28;20207;-64
2023/01/21 00:32:48;;;;;;;7.17;3.73;;;-8.60;99.50;;;;;;4162317;28;20175;-62
2023/01/21 00:34:49;;;;;;;6.50;4.27;;;-8.60;99.90;;;;;;4162265;28;20180;-63
2023/01/21 00:36:49;;;;;;;6.70;4.57;;;-8.60;99.90;;;;;;4162056;28;20210;-63
2023/01/21 00:38:50;;;;;;;7.63;4.77;;;-8.70;99.90;;;;;;4162286;28;20241;-62
2023/01/21 00:40:51;;;;;;;10.27;4.17;;;-8.70;99.90;;;;;;4161615;28;20188;-63
2023/01/21 00:42:51;;;;;;;6.53;4.03;;;-8.70;99.90;;;;;;4162438;28;20184;-64
2023/01/21 00:44:53;;;;;;;9.20;4.17;;;-8.70;99.90;;;;;;4162277;28;20254;-63
2023/01/21 00:46:54;;;;;;;7.88;4.57;;;-8.70;99.80;;;;;;4162200;28;20608;-63
2023/01/21 00:48:55;;;;;;;7.60;3.73;;;-8.80;99.80;;;;;;4162275;28;20279;-62
2023/01/21 00:50:59;;;;;;;7.60;3.80;;;-8.70;99.90;;;;;;4161625;28;20319;-63
2023/01/21 00:53:00;;;;;;;5.90;3.47;;;-8.60;99.90;;;;;;4145013;28;20583;-63
2023/01/21 00:55:00;;;;;;;11.53;3.83;;;-8.60;99.90;;;;;;4162225;28;20245;-63
2023/01/21 00:57:01;;;;;;;4.90;3.23;;;-8.60;99.90;;;;;;4162151;28;20223;-63
2023/01/21 00:59:02;;;;;;;9.10;4.17;;;-8.70;99.90;;;;;;4162312;28;20647;-63
2023/01/21 01:01:16;;;;;;;5.37;3.33;;;-8.70;99.90;;;;;;4161824;28;20248;-63
2023/01/21 01:03:17;;;;;;;5.45;3.10;;;-8.70;99.90;;;;;;4162254;28;20168;-63
2023/01/21 01:05:18;;;;;;;5.03;2.63;;;-8.60;99.90;;;;;;4162205;28;20227;-63
2023/01/21 01:07:19;;;;;;;4.95;2.53;;;-8.60;99.90;;;;;;4162216;28;20203;-62
2023/01/21 01:09:20;;;;;;;5.20;3.23;;;-8.60;99.90;;;;;;4144260;28;20191;-63
2023/01/21 01:11:21;;;;;;;5.07;3.73;;;-8.60;99.90;;;;;;4162904;28;20242;-62
2023/01/21 01:13:21;;;;;;;5.17;3.70;;;-8.60;99.60;;;;;;4163917;28;20180;-61
2023/01/21 01:15:22;;;;;;;6.73;3.57;;;-8.80;99.70;;;;;;4162685;28;20214;-62
2023/01/21 01:17:23;;;;;;;5.93;3.63;;;-8.90;99.90;;;;;;4162582;28;20202;-62
2023/01/21 01:19:24;;;;;;;8.80;3.37;;;-9.00;99.90;;;;;;4162124;28;20184;-63
2023/01/21 01:21:25;;;;;;;5.13;3.45;;;-9.10;99.90;;;;;;4144765;28;20212;-62
2023/01/21 01:23:25;;;;;;;5.73;3.57;;;-9.00;99.90;;;;;;4162228;28;20566;-62
2023/01/21 01:25:26;;;;;;;5.47;3.40;;;-8.90;99.90;;;;;;4162072;28;20314;-63
2023/01/21 01:27:29;;;;;;;7.50;3.27;;;-8.90;99.90;;;;;;4108967;28;20206;-63
2023/01/21 01:29:30;;;;;;;5.20;3.70;;;-8.90;99.90;;;;;;4094524;29;20180;-63
2023/01/21 01:31:31;;;;;;;9.30;3.53;;;-9.00;99.60;;;;;;4095295;29;20225;-63
2023/01/21 01:33:32;;;;;;;8.80;3.60;;;-8.90;99.10;;;;;;4096446;28;20194;-63
2023/01/21 01:35:33;;;;;;;7.35;4.07;;;-8.90;98.70;;;;;;4097998;29;20268;-63
2023/01/21 01:37:34;;;;;;;6.47;3.77;;;-9.00;98.10;;;;;;4097790;29;20238;-62
2023/01/21 01:39:34;;;;;;;6.83;4.10;;;-9.00;98.30;;;;;;4097262;29;20191;-63
2023/01/21 01:41:35;;;;;;;9.57;3.40;;;-9.20;98.30;;;;;;4097777;29;20240;-63
2023/01/21 01:43:59;;;;;;;7.83;3.63;;;-9.20;98.70;;;;;;4080677;29;20185;-63
2023/01/21 01:46:00;;;;;;;6.93;3.85;;;-9.20;98.90;;;;;;4097787;29;20217;-62
2023/01/21 01:48:05;;;;;;;5.57;3.47;;;-9.20;98.70;;;;;;4098091;29;20209;-63
2023/01/21 01:50:09;;;;;;;8.68;4.05;;;-9.20;98.40;;;;;;4097447;28;20193;-63
2023/01/21 01:52:12;;;;;;;7.57;4.68;;;-9.20;98.90;;;;;;4080723;29;20192;-63
2023/01/21 01:54:38;;;;;;;7.68;3.80;;;-9.30;99.00;;;;;;4097754;29;20257;-63
2023/01/21 01:56:42;;;;;;;12.38;4.70;;;-9.30;99.40;;;;;;4080655;29;20287;-63
2023/01/21 01:58:45;;;;;;;7.78;4.93;;;-9.30;99.60;;;;;;4080537;28;20296;-62
2023/01/21 02:00:46;;;;;;;5.50;3.60;;;-9.30;99.90;;;;;;4096926;29;20196;-63
2023/01/21 02:03:43;;;;;;;10.47;4.57;;;-9.30;99.80;;;;;;4097414;29;20301;-63
2023/01/21 02:05:09;;;;;;;6.90;4.05;;;-9.30;99.90;;;;;;4097129;29;20260;-63
2023/01/21 02:07:10;;;;;;;11.65;4.40;;;-9.30;99.90;;;;;;4097217;29;20647;-63
2023/01/21 02:09:11;;;;;;;8.47;3.93;;;-9.30;99.80;;;;;;4097217;29;20209;-62
2023/01/21 02:11:18;;;;;;;6.03;3.37;;;-9.30;99.20;;;;;;4097352;29;20187;-62
2023/01/21 02:13:19;;;;;;;6.50;4.15;;;-9.30;98.80;;;;;;4080316;29;20228;-62
2023/01/21 02:15:21;;;;;;;9.53;3.97;;;-9.20;98.40;;;;;;4097453;28;20248;-63
2023/01/21 02:17:43;;;;;;;10.55;3.30;;;-9.20;98.70;;;;;;4080268;29;20214;-63
2023/01/21 02:20:05;;;;;;;8.35;3.60;;;-9.30;99.00;;;;;;4096859;29;20237;-63
2023/01/21 02:22:49;;;;;;;5.20;4.15;;;-9.30;99.60;;;;;;4097357;29;20196;-63
2023/01/21 02:25:39;;;;;;;9.35;3.00;;;-9.30;99.80;;;;;;4080460;29;20720;-63
2023/01/21 02:28:08;;;;;;;7.30;4.07;;;-9.30;99.90;;;;;;4097849;29;20581;-63
2023/01/21 02:30:49;;;;;;;9.52;3.17;;;-9.30;99.90;;;;;;4080135;29;20189;-63
2023/01/21 02:33:17;;;;;;;5.95;3.60;;;-9.30;99.90;;;;;;4082982;29;20213;-63
2023/01/21 02:35:29;;;;;;;5.95;3.72;;;-9.50;99.70;;;;;;4079132;29;20200;-63
2023/01/21 02:38:17;;;;;;;6.43;3.00;;;-9.40;99.30;;;;;;4096959;29;20215;-62
2023/01/21 02:41:06;;;;;;;6.00;2.85;;;-9.40;98.90;;;;;;4112706;28;20240;-63
2023/01/21 02:43:41;;;;;;;5.13;3.47;;;-9.40;99.60;;;;;;4096842;29;20210;-63
2023/01/21 02:45:54;;;;;;;6.78;3.72;;;-9.40;98.80;;;;;;4081724;28;20747;-63
2023/01/21 02:48:06;;;;;;;6.18;3.55;;;-9.50;97.80;;;;;;4080333;29;20194;-63
2023/01/21 02:50:27;;;;;;;8.63;4.35;;;-9.40;97.50;;;;;;4079426;29;20168;-62
2023/01/21 02:52:28;;;;;;;5.97;3.35;;;-9.40;97.60;;;;;;4064034;29;20221;-63
2023/01/21 02:54:37;;;;;;;5.40;3.30;;;-9.50;97.90;;;;;;4096969;28;20528;-63
2023/01/21 02:56:38;;;;;;;8.75;3.55;;;-9.50;98.10;;;;;;4096732;29;20204;-62
2023/01/21 02:58:45;;;;;;;10.90;4.90;;;-9.50;98.10;;;;;;4080040;29;20232;-63
2023/01/21 03:01:14;;;;;;;7.60;4.05;;;-9.50;97.90;;;;;;4096492;29;20710;-63
2023/01/21 03:03:40;;;;;;;5.90;3.60;;;-9.60;98.20;;;;;;4096926;29;20220;-63
2023/01/21 03:06:28;;;;;;;6.60;3.80;;;-9.50;99.10;;;;;;4079805;28;20223;-62
2023/01/21 03:08:40;;;;;;;8.10;3.55;;;-9.60;99.70;;;;;;4096828;29;20792;-63
2023/01/21 03:11:03;;;;;;;5.00;2.80;;;-9.60;99.60;;;;;;4096444;29;20176;-63
2023/01/21 03:13:12;;;;;;;3.55;2.30;;;-9.60;99.80;;;;;;4081583;29;20181;-63
2023/01/21 03:18:00;;;;;;;3.00;2.08;;;-9.50;99.40;;;;;;4082254;29;20204;-63
2023/01/21 03:20:26;;;;;;;2.88;2.13;;;-9.50;99.40;;;;;;4079137;29;20234;-63
2023/01/21 03:22:33;;;;;;;4.78;2.50;;;-9.50;99.20;;;;;;4096792;29;20234;-63
2023/01/21 03:24:37;;;;;;;3.08;2.40;;;-9.50;99.00;;;;;;4093786;28;20660;-63
2023/01/21 03:26:43;;;;;;;3.65;2.13;;;-9.50;98.60;;;;;;4079533;29;20183;-63
2023/01/21 03:28:50;;;;;;;2.60;1.98;;;-9.40;98.20;;;;;;4079944;29;20211;-63
2023/01/21 03:31:04;;;;;;;3.03;1.73;;;-9.40;98.10;;;;;;4079040;29;20192;-62
2023/01/21 03:33:08;;;;;;;3.70;2.17;;;-9.40;97.80;;;;;;4079719;29;20201;-63
2023/01/21 03:35:12;;;;;;;3.42;1.90;;;-9.40;97.50;;;;;;4096744;29;20193;-62
2023/01/21 03:37:28;;;;;;;2.63;1.80;;;-9.40;97.40;;;;;;4096808;29;20300;-62
2023/01/21 03:39:43;;;;;;;3.58;2.20;;;-9.40;96.90;;;;;;4096316;29;20204;-62
2023/01/21 03:41:44;;;;;;;2.58;1.75;;;-9.60;96.90;;;;;;4079568;29;20685;-61
2023/01/21 03:43:45;;;;;;;3.20;1.63;;;-9.60;97.40;;;;;;4096661;29;20186;-62
2023/01/21 03:46:06;;;;;;;4.23;2.33;;;-9.50;97.60;;;;;;4079383;29;20361;-61
2023/01/21 03:48:32;;;;;;;2.92;1.95;;;-9.50;98.40;;;;;;4079756;29;20761;-62
2023/01/21 03:50:46;;;;;;;2.33;2.13;;;-9.50;97.50;;;;;;4078884;29;20226;-61
2023/01/21 03:52:46;;;;;;;4.28;2.08;;;-9.40;97.20;;;;;;4096280;29;20160;-61
2023/01/21 03:54:48;;;;;;;2.70;1.73;;;-9.50;97.10;;;;;;4063821;28;20267;-61
2023/01/21 03:56:48;;;;;;;2.42;1.60;;;-9.50;97.20;;;;;;4073335;28;20196;-62
2023/01/21 03:58:49;;;;;;;5.37;2.00;;;-9.50;96.70;;;;;;4096279;29;20660;-62
2023/01/21 04:00:50;;;;;;;3.23;2.07;;;-9.50;97.10;;;;;;4095622;29;20694;-62
2023/01/21 04:02:50;;;;;;;2.33;1.77;;;-9.60;97.60;;;;;;4096344;29;20563;-61
2023/01/21 04:04:52;;;;;;;2.47;1.70;;;-9.70;97.30;;;;;;4096080;29;20294;-62
2023/01/21 04:06:52;;;;;;;3.25;1.70;;;-9.70;97.50;;;;;;4094560;29;20190;-62
2023/01/21 04:08:53;;;;;;;3.23;1.80;;;-9.70;98.00;;;;;;4096095;28;20689;-62
2023/01/21 04:10:53;;;;;;;2.30;1.43;;;-9.70;98.30;;;;;;4161281;28;20185;-62
2023/01/21 04:12:54;;;;;;;2.73;1.70;;;-9.70;98.80;;;;;;4131370;28;20216;-62
2023/01/21 04:14:56;;;;;;;2.60;1.53;;;-9.70;98.30;;;;;;4095755;28;20189;-62
2023/01/21 04:16:56;;;;;;;2.70;1.75;;;-9.60;98.30;;;;;;4095934;29;20211;-62
2023/01/21 04:18:57;;;;;;;2.93;2.03;;;-9.60;98.30;;;;;;4095816;29;20573;-62
2023/01/21 04:20:58;;;;;;;2.83;1.97;;;-9.60;98.10;;;;;;4095434;29;20274;-62
2023/01/21 04:22:58;;;;;;;5.00;2.00;;;-9.70;97.90;;;;;;4096122;29;20189;-61
2023/01/21 04:24:59;;;;;;;2.53;1.73;;;-9.70;98.10;;;;;;4096294;28;20214;-62
2023/01/21 04:27:00;;;;;;;3.70;2.40;;;-9.80;97.90;;;;;;4096100;29;20187;-62
2023/01/21 04:29:01;;;;;;;2.13;1.83;;;-9.80;97.60;;;;;;4096299;29;20206;-62
2023/01/21 04:31:02;;;;;;;1.93;1.63;;;-9.70;98.20;;;;;;4095775;29;20172;-62
2023/01/21 04:33:02;;;;;;;4.00;2.10;;;-9.70;99.40;;;;;;4096064;29;20181;-62
2023/01/21 04:35:03;;;;;;;2.70;1.93;;;-9.70;99.00;;;;;;4096041;29;20271;-62
2023/01/21 04:37:04;;;;;;;5.85;1.98;;;-9.70;99.10;;;;;;4095735;29;20240;-62
2023/01/21 04:39:05;;;;;;;2.03;1.57;;;-9.70;99.00;;;;;;4095848;29;20717;-62
2023/01/21 04:41:05;;;;;;;2.47;1.80;;;-9.70;98.10;;;;;;4095219;29;20657;-62
2023/01/21 04:43:06;;;;;;;3.63;1.63;;;-9.60;98.30;;;;;;4131838;28;20228;-62
2023/01/21 04:45:08;;;;;;;2.87;2.00;;;-9.70;97.80;;;;;;4145095;28;20202;-62
2023/01/21 04:47:08;;;;;;;2.47;1.90;;;-9.60;98.30;;;;;;4162764;28;20452;-62
2023/01/21 04:49:09;;;;;;;3.67;1.87;;;-9.60;98.60;;;;;;4160958;28;20196;-61
2023/01/21 04:51:10;;;;;;;3.10;1.37;;;-9.70;98.70;;;;;;4162229;28;20184;-62
2023/01/21 04:53:10;;;;;;;2.00;1.60;;;-9.70;98.50;;;;;;4162542;28;20739;-63
2023/01/21 04:55:11;;;;;;;1.87;1.40;;;-9.70;98.20;;;;;;4144908;28;20194;-60
2023/01/21 04:57:12;;;;;;;1.50;1.40;;;-9.70;98.20;;;;;;4162575;28;20201;-63
2023/01/21 04:59:13;;;;;;;1.73;1.40;;;-9.80;98.00;;;;;;4162112;28;20193;-63
2023/01/21 05:01:13;;;;;;;1.57;1.23;;;-9.80;97.10;;;;;;4144938;28;20229;-63
2023/01/21 05:03:14;;;;;;;2.40;1.20;;;-9.70;96.90;;;;;;4162650;28;20212;-63
2023/01/21 05:05:15;;;;;;;3.22;1.67;;;-9.70;97.30;;;;;;4145089;28;20715;-62
2023/01/21 05:07:16;;;;;;;3.60;2.07;;;-9.70;97.50;;;;;;4163792;28;20197;-63
2023/01/21 05:09:16;;;;;;;3.83;2.37;;;-9.80;96.90;;;;;;4165601;28;20183;-62
2023/01/21 05:11:19;;;;;;;4.30;1.53;;;-9.80;97.00;;;;;;4156585;28;20696;-63
2023/01/21 05:13:19;;;;;;;1.75;1.30;;;-9.80;96.40;;;;;;4166658;28;20196;-63
2023/01/21 05:15:20;;;;;;;3.10;1.67;;;-9.80;96.00;;;;;;4165223;28;20707;-62
2023/01/21 05:17:21;;;;;;;2.80;1.60;;;-9.80;96.10;;;;;;4165350;28;20620;-62
2023/01/21 05:19:21;;;;;;;3.63;2.00;;;-9.80;96.60;;;;;;4168193;28;20185;-62
2023/01/21 05:21:22;;;;;;;4.17;1.60;;;-9.90;96.70;;;;;;4181510;28;20192;-63
2023/01/21 05:23:23;;;;;;;2.57;2.10;;;-9.80;96.50;;;;;;4182677;28;20184;-62
2023/01/21 05:25:23;;;;;;;1.40;1.27;;;-9.80;97.10;;;;;;4182486;28;20213;-62
2023/01/21 05:27:24;;;;;;;1.93;1.63;;;-9.80;97.90;;;;;;4182448;28;20637;-62
2023/01/21 05:29:24;;;;;;;2.10;1.67;;;-9.90;98.10;;;;;;4181747;28;20603;-62
2023/01/21 05:31:25;;;;;;;2.47;1.80;;;-9.80;98.40;;;;;;4182417;28;20180;-63
2023/01/21 05:33:31;;;;;;;2.90;2.47;;;-9.80;98.60;;;;;;4182457;28;20216;-62
2023/01/21 05:35:34;;;;;;;2.47;2.00;;;-9.70;98.20;;;;;;4164437;28;20204;-63
2023/01/21 05:37:35;;;;;;;3.33;2.03;;;-9.70;98.10;;;;;;4164532;28;20213;-62
2023/01/21 05:39:35;;;;;;;2.67;2.10;;;-9.70;98.50;;;;;;4181501;28;20675;-62
2023/01/21 05:41:36;;;;;;;2.37;1.93;;;-9.70;98.60;;;;;;4182055;28;20725;-62
2023/01/21 05:43:37;;;;;;;3.50;1.57;;;-9.70;98.90;;;;;;4182302;28;20899;-62
2023/01/21 05:45:37;;;;;;;1.93;1.53;;;-9.70;98.40;;;;;;4182636;28;20228;-62
2023/01/21 05:47:38;;;;;;;2.57;1.80;;;-9.60;98.30;;;;;;4182580;28;20207;-63
2023/01/21 05:49:39;;;;;;;2.07;1.60;;;-9.60;98.20;;;;;;4181150;28;20176;-62
2023/01/21 05:51:39;;;;;;;2.23;1.40;;;-9.60;98.40;;;;;;4181703;28;20181;-63
2023/01/21 05:53:40;;;;;;;1.43;1.33;;;-9.60;98.30;;;;;;4163952;28;20169;-63
2023/01/21 05:55:41;;;;;;;1.90;1.10;;;-9.60;98.20;;;;;;4181717;28;20212;-63
2023/01/21 05:57:42;;;;;;;2.80;1.30;;;-9.50;97.70;;;;;;4181608;28;20257;-62
2023/01/21 05:59:42;;;;;;;1.50;1.33;;;-9.50;97.30;;;;;;4181094;28;20251;-63
2023/01/21 06:01:43;;;;;;;2.47;1.40;;;-9.50;96.80;;;;;;4181616;28;20190;-62
2023/01/21 06:03:44;;;;;;;2.00;1.60;;;-9.50;97.10;;;;;;4181602;28;20185;-63
2023/01/21 06:05:45;;;;;;;1.63;1.40;;;-9.50;97.70;;;;;;4181554;28;20210;-62
2023/01/21 06:07:46;;;;;;;1.55;1.17;;;-9.60;98.20;;;;;;4181718;28;20279;-62
2023/01/21 06:09:47;;;;;;;1.93;1.10;;;-9.60;98.30;;;;;;4157560;28;20253;-63
2023/01/21 06:11:47;;;;;;;1.00;1.00;;;-9.60;98.00;;;;;;4088323;29;20188;-63
2023/01/21 06:13:48;;;;;;;1.80;1.13;;;-9.50;98.40;;;;;;4097716;29;20231;-63
2023/01/21 06:15:49;;;;;;;1.80;1.57;;;-9.60;97.90;;;;;;4097680;29;20184;-63
2023/01/21 06:17:51;;;;;;;1.33;1.10;;;-9.50;97.60;;;;;;4097987;29;20201;-63
2023/01/21 06:19:52;;;;;;;1.92;1.10;;;-9.50;97.00;;;;;;4096259;28;20196;-62
2023/01/21 06:21:52;;;;;;;2.07;1.30;;;-9.50;97.30;;;;;;4098176;29;20206;-63
2023/01/21 06:23:53;;;;;;;1.07;1.00;;;-9.60;97.00;;;;;;4097785;29;20254;-63
2023/01/21 06:25:59;;;;;;;3.83;1.50;;;-9.50;97.10;;;;;;4097667;29;20221;-62
2023/01/21 06:28:00;;;;;;;1.92;1.55;;;-9.50;96.90;;;;;;4080919;29;20211;-63
2023/01/21 06:30:00;;;;;;;6.60;4.50;;;-9.50;97.10;;;;;;4097329;29;20190;-63
2023/01/21 06:32:01;;;;;;;4.00;2.50;;;-9.70;98.40;;;;;;4098157;29;20181;-63
2023/01/21 06:34:02;;;;;;;3.63;2.20;;;-9.70;98.90;;;;;;4097802;29;20187;-62
2023/01/21 06:36:03;;;;;;;2.13;1.80;;;-9.60;99.00;;;;;;4097573;29;20772;-62
2023/01/21 06:38:03;;;;;;;2.83;1.60;;;-9.60;98.60;;;;;;4097613;29;20215;-62
2023/01/21 06:40:06;;;;;;;2.30;1.77;;;-9.60;98.10;;;;;;4079803;28;20534;-62
2023/01/21 06:42:07;;;;;;;2.22;1.30;;;-9.60;98.30;;;;;;4097532;28;20190;-62
2023/01/21 06:44:08;;;;;;;2.97;1.33;;;-9.60;98.70;;;;;;4097473;29;20667;-63
2023/01/21 06:46:09;;;;;;;6.20;3.87;;;-9.70;98.90;;;;;;4130706;28;20703;-62
2023/01/21 06:48:10;;;;;;;7.32;3.45;;;-9.80;97.80;;;;;;4164287;28;20879;-62
2023/01/21 06:50:13;;;;;;;2.53;1.73;;;-9.70;97.50;;;;;;4163727;28;20188;-62
2023/01/21 06:52:14;;;;;;;2.03;1.58;;;-9.60;97.60;;;;;;4146847;28;20241;-63
2023/01/21 06:54:14;;;;;;;1.00;0.90;;;-9.70;97.60;;;;;;4164225;28;20652;-63
2023/01/21 06:56:15;;;;;;;1.80;1.23;;;-9.70;98.10;;;;;;4164150;28;20679;-63
2023/01/21 06:58:16;;;;;;;1.67;1.40;;;-9.70;98.30;;;;;;4146449;28;20873;-61
2023/01/21 07:00:17;;;;;;;1.77;1.33;;;-9.60;99.60;;;;;;4163535;28;20605;-62
2023/01/21 07:02:18;;;;;;;3.88;1.73;;;-9.60;99.90;;;;;;4164018;28;20181;-62
2023/01/21 07:04:18;;;;;;;2.17;1.40;;;-9.60;99.90;;;;;;4164180;28;20196;-61
2023/01/21 07:06:20;;;;;;;3.27;1.80;;;-9.50;99.90;;;;;;4163868;28;20206;-62
2023/01/21 07:08:21;;;;;;;5.95;2.10;;;-9.60;98.90;;;;;;4164110;28;20197;-63
2023/01/21 07:10:23;;;;;;;6.47;2.20;;;-9.50;98.20;;;;;;4163432;28;20210;-64
2023/01/21 07:12:24;;;;;;;2.65;1.75;;;-9.40;97.70;;;;;;4164801;28;20428;-63
2023/01/21 07:14:25;;;;;;;4.87;2.33;;;-9.40;97.50;;;;;;4164694;28;20188;-62
2023/01/21 07:16:25;;;;;;;2.03;1.17;;;-9.40;97.10;;;;;;4164152;28;20194;-64
2023/01/21 07:18:26;;;;;;;2.13;1.43;;;-9.40;97.10;;;;;;4163849;28;20300;-63
2023/01/21 07:20:27;;;;;;;2.63;2.30;;;-9.40;97.00;;;;;;4158718;28;20748;-63
2023/01/21 07:22:28;;;;;;;2.87;2.00;;;-9.40;97.50;;;;;;4103293;28;20202;-63
2023/01/21 07:24:28;;;;;;;4.20;1.67;;;-9.30;97.50;;;;;;4096860;29;20184;-63
2023/01/21 07:26:29;;;;;;;3.93;1.90;;;-9.20;97.70;;;;;;4096724;29;20704;-63
2023/01/21 07:28:30;;;;;;;7.90;2.77;;;-9.20;97.10;;;;;;4096828;29;20255;-62
2023/01/21 07:30:30;;;;;;;3.27;2.40;;;-9.20;96.90;;;;;;4078060;29;20258;-63
2023/01/21 07:32:31;;;;;;;4.70;2.83;;;-9.10;96.90;;;;;;4096497;29;20197;-63
2023/01/21 07:34:32;;;;;;;8.70;3.07;;;-9.20;96.70;;;;;;4096725;29;20186;-63
2023/01/21 07:36:32;;;;;;;18.33;8.80;;;-9.00;96.90;;;;;;4079542;29;20213;-63
2023/01/21 07:38:33;;;;;;;10.03;4.50;;;-9.00;96.90;;;;;;4096567;29;20231;-64
2023/01/21 07:40:34;;;;;;;9.57;4.70;;;-8.90;96.90;;;;;;4095891;29;20244;-62
2023/01/21 07:42:34;;;;;;;12.87;6.77;;;-8.80;96.80;;;;;;4096185;29;20282;-62
2023/01/21 07:44:35;;;;;;;12.73;6.67;;;-8.70;96.90;;;;;;4079290;29;20208;-62
2023/01/21 07:46:36;;;;;;;12.53;5.53;;;-8.70;96.70;;;;;;4096552;28;20185;-64
2023/01/21 07:48:36;;;;;;;8.83;5.67;;;-8.80;97.20;;;;;;4096605;29;20689;-62
2023/01/21 07:50:37;;;;;;;5.50;3.77;;;-8.60;97.30;;;;;;4095756;29;20179;-63
2023/01/21 07:52:39;;;;;;;5.20;3.83;;;-8.50;97.10;;;;;;4096655;29;20202;-62
2023/01/21 07:54:40;;;;;;;6.38;3.17;;;-8.50;97.10;;;;;;4079522;29;20858;-62
2023/01/21 07:56:41;;;;;;;5.00;2.93;;;-8.40;97.30;;;;;;4096223;29;20218;-63
2023/01/21 07:58:41;;;;;;;4.37;2.30;;;-8.30;97.20;;;;;;4096330;29;20210;-63
2023/01/21 08:00:42;;;;;;;4.83;2.37;;;-8.10;97.20;;;;;;4095606;29;20187;-63
2023/01/21 08:02:43;;;;;;;5.73;2.87;;;-8.10;97.50;;;;;;4079783;29;20196;-63
2023/01/21 08:04:44;;;;;;;14.65;6.82;;;-8.00;97.50;;;;;;4096147;29;20226;-62
2023/01/21 08:06:44;;;;;;;27.10;11.80;;;-7.80;97.20;;;;;;4096178;29;20616;-63
2023/01/21 08:08:45;;;;;;;29.47;13.27;;;-7.70;97.10;;;;;;4096074;29;20569;-63
2023/01/21 08:10:54;;;;;;;13.03;7.30;;;-7.50;96.60;;;;;;4095447;29;20653;-63
2023/01/21 08:12:54;;;;;;;12.40;6.17;;;-7.40;96.90;;;;;;4096201;29;20624;-64
2023/01/21 08:14:55;;;;;;;11.17;6.33;;;-7.20;95.90;;;;;;4096116;29;20431;-63
2023/01/21 08:16:56;;;;;;;13.00;6.73;;;-7.10;96.70;;;;;;4096308;29;20192;-63
2023/01/21 08:18:56;;;;;;;14.63;5.97;;;-6.90;95.70;;;;;;4096286;29;20186;-62
2023/01/21 08:20:58;;;;;;;11.60;7.00;;;-6.80;95.60;;;;;;4095659;29;20232;-63
2023/01/21 08:22:59;;;;;;;12.07;7.53;;;-6.60;95.20;;;;;;4096293;29;20656;-63
2023/01/21 08:25:01;;;;;;;12.13;7.33;;;-6.50;96.20;;;;;;4095874;29;20839;-63
2023/01/21 08:27:01;;;;;;;14.37;9.50;;;-6.30;96.80;;;;;;4078916;29;20476;-63
2023/01/21 08:29:02;;;;;;;15.27;9.80;;;-6.20;96.30;;;;;;4096005;28;20939;-63
2023/01/21 08:31:10;;;;;;;21.33;14.17;;;-6.00;95.50;;;;;;4095353;29;20190;-62
2023/01/21 08:33:11;;;;;;;24.37;17.40;;;-6.00;95.80;;;;;;4079008;28;20168;-63
2023/01/21 08:35:12;;;;;;;22.90;14.47;;;-5.80;95.90;;;;;;4096029;29;20445;-63
2023/01/21 08:37:13;;;;;;;26.57;16.33;;;-5.70;97.00;;;;;;4096072;29;20608;-63
2023/01/21 08:39:15;;;;;;;29.97;20.10;;;-5.50;97.50;;;;;;4095772;29;20192;-63
2023/01/21 08:41:16;;;;;;;22.53;15.17;;;-5.30;96.80;;;;;;4095690;28;20195;-63
2023/01/21 08:43:17;;;;;;;13.20;8.37;;;-5.10;95.60;;;;;;4096105;28;20435;-63
2023/01/21 08:45:17;;;;;;;17.67;9.67;;;-5.00;97.20;;;;;;4103334;28;20471;-62
2023/01/21 08:47:18;;;;;;;26.47;14.03;;;-4.80;99.20;;;;;;4098872;28;20212;-63
2023/01/21 08:49:21;;;;;;;15.87;9.73;;;-4.50;98.60;;;;;;4095393;29;20218;-63
2023/01/21 08:51:22;;;;;;;14.57;8.00;;;-4.40;97.70;;;;;;4095560;29;20265;-63
2023/01/21 08:53:22;;;;;;;10.83;7.33;;;-4.30;98.40;;;;;;4095773;29;20451;-63
2023/01/21 08:55:25;;;;;;;11.30;7.10;;;-4.30;99.90;;;;;;4095655;29;20211;-63
2023/01/21 08:57:27;;;;;;;13.50;7.47;;;-4.20;99.90;;;;;;4063195;29;20222;-63
2023/01/21 08:59:28;;;;;;;11.93;7.07;;;-4.00;99.90;;;;;;4095369;29;20438;-63
2023/01/21 09:01:29;;;;;;;16.83;8.43;;;-3.90;99.90;;;;;;4078833;29;20450;-63
2023/01/21 09:03:30;;;;;;;13.00;7.37;;;-3.80;99.90;;;;;;4096151;28;20440;-63
2023/01/21 09:05:30;;;;;;;17.10;8.00;;;-3.90;99.90;;;;;;4095612;29;20215;-63
2023/01/21 09:07:31;;;;;;;18.20;10.80;;;-3.70;99.90;;;;;;4095729;29;20261;-64
2023/01/21 09:09:32;;;;;;;37.03;10.87;;;-3.70;99.90;;;;;;4077740;29;20191;-63
2023/01/21 09:11:33;;;;;;;14.97;8.17;;;-3.70;99.90;;;;;;4097774;29;20617;-64
2023/01/21 09:13:38;;;;;;;15.57;7.63;;;-3.80;99.90;;;;;;4099079;29;20614;-64
2023/01/21 09:15:41;;;;;;;18.00;8.67;;;-3.80;99.90;;;;;;4079311;28;20438;-64
2023/01/21 09:17:42;;;;;;;15.13;7.63;;;-3.80;99.90;;;;;;4177376;28;21011;-64
2023/01/21 09:19:42;;;;;;;18.93;9.20;;;-3.80;99.90;;;;;;4095218;28;20433;-63
2023/01/21 09:21:43;;;;;;;23.50;8.33;;;-3.80;99.90;;;;;;4129530;28;20183;-64
2023/01/21 09:23:44;;;;;;;16.60;8.13;;;-3.80;99.90;;;;;;4095573;28;20668;-65
2023/01/21 09:25:44;;;;;;;17.70;7.87;;;-3.90;99.90;;;;;;4098841;28;20219;-65
2023/01/21 09:27:45;;;;;;;15.17;8.37;;;-3.80;99.90;;;;;;4079564;29;20332;-64
2023/01/21 09:29:46;;;;;;;22.17;10.13;;;-3.60;99.90;;;;;;4061991;29;20189;-64
2023/01/21 09:31:46;;;;;;;17.03;9.13;;;-3.60;99.90;;;;;;4062270;29;20212;-64
2023/01/21 09:33:51;;;;;;;25.70;10.90;;;-3.60;99.90;;;;;;4079627;29;20170;-64
2023/01/21 09:35:57;;;;;;;15.27;7.97;;;-3.80;99.90;;;;;;4079155;29;20201;-64
2023/01/21 09:37:58;;;;;;;29.00;7.40;;;-3.70;99.90;;;;;;4079280;29;20453;-64
2023/01/21 09:40:02;;;;;;;19.63;8.73;;;-3.70;99.90;;;;;;4078729;29;20435;-64
2023/01/21 09:42:03;;;;;;;15.07;7.50;;;-3.60;99.90;;;;;;4079593;29;20658;-64
2023/01/21 09:44:43;;;;;;;30.83;8.90;;;-3.50;99.90;;;;;;4062373;29;20468;-64
2023/01/21 09:47:21;;;;;;;15.90;7.83;;;-3.40;99.90;;;;;;4060657;29;20739;-64
2023/01/21 09:49:38;;;;;;;17.93;8.50;;;-3.20;99.90;;;;;;4078662;29;20841;-64
2023/01/21 09:51:52;;;;;;;13.67;8.23;;;-3.20;99.90;;;;;;4062434;29;20420;-64
2023/01/21 09:53:56;;;;;;;13.33;8.17;;;-3.20;99.90;;;;;;4062731;29;20496;-64
2023/01/21 09:56:00;;;;;;;20.70;10.00;;;-3.10;99.90;;;;;;4065089;29;20421;-63
2023/01/21 09:58:14;;;;;;;16.00;8.87;;;-3.10;99.90;;;;;;4082174;29;20446;-63
2023/01/21 10:00:35;;;;;;;17.87;8.83;;;-3.20;99.90;;;;;;4081311;29;20861;-63
2023/01/21 10:03:04;;;;;;;15.00;9.63;;;-3.20;99.90;;;;;;4049321;29;20436;-63
2023/01/21 10:05:51;;;;;;;20.23;8.83;;;-3.20;99.90;;;;;;4081824;29;20495;-63
2023/01/21 10:08:30;;;;;;;19.63;8.97;;;-3.10;99.90;;;;;;4064735;29;20441;-63
2023/01/21 10:11:02;;;;;;;25.53;10.77;;;-3.20;99.90;;;;;;4064422;29;20483;-63
2023/01/21 10:13:26;;;;;;;21.30;9.57;;;-3.40;99.90;;;;;;4065175;29;20895;-63
2023/01/21 10:15:37;;;;;;;20.33;10.07;;;-3.60;99.90;;;;;;4064915;29;20491;-63
2023/01/21 10:17:58;;;;;;;15.73;7.70;;;-3.60;99.90;;;;;;4064728;29;20907;-63
2023/01/21 10:20:20;;;;;;;17.77;7.97;;;-3.50;99.90;;;;;;4064198;29;20434;-63
2023/01/21 10:22:27;;;;;;;17.40;8.73;;;-3.50;99.90;;;;;;4064941;29;20480;-64
2023/01/21 10:24:37;;;;;;;23.27;11.17;;;-3.80;99.90;;;;;;4082146;29;20880;-63
2023/01/21 10:26:40;;;;;;;22.73;9.60;;;-3.80;99.90;;;;;;4065092;29;20425;-63
2023/01/21 10:28:49;;;;;;;22.27;9.80;;;-3.70;99.90;;;;;;4064773;29;20449;-63
2023/01/21 10:30:59;;;;;;;38.53;10.37;;;-3.70;99.90;;;;;;4064412;29;20413;-63
2023/01/21 10:32:59;;;;;;;24.90;7.80;;;-3.80;99.90;;;;;;4064851;29;20412;-63
2023/01/21 10:35:00;;;;;;;21.10;8.93;;;-3.60;99.90;;;;;;4081562;28;20427;-63
2023/01/21 10:37:28;;;;;;;20.67;8.13;;;-3.50;99.90;;;;;;4081247;29;20204;-63
2023/01/21 10:40:16;;;;;;;15.93;7.90;;;-3.30;99.90;;;;;;4063986;29;20295;-63
2023/01/21 10:42:58;;;;;;;21.83;9.37;;;-2.90;99.90;;;;;;4081292;29;20509;-64
2023/01/21 10:45:16;;;;;;;13.67;6.63;;;-2.40;99.90;;;;;;4066097;28;20489;-63
2023/01/21 10:47:41;;;;;;;13.83;6.40;;;-2.20;99.90;;;;;;4079330;28;20448;-63
2023/01/21 10:50:28;;;;;;;18.53;8.03;;;-1.90;99.90;;;;;;4080046;29;20428;-63
2023/01/21 10:53:11;;;;;;;15.77;8.00;;;-2.40;99.90;;;;;;4093449;29;20447;-63